Time;durP1;ratioP1;P1;durP2;ratioP2;P2;SDS_P1;SDS_P2;PMS_P1;PMS_P2;Temp;Humidity;BMP_temperature;BMP_pressure;BME280_temperature;BME280_humidity;BME280_pressure;Samples;Min_cycle;Max_cycle;Signal;HPM_P1;HPM_P2
2022/01/17 00:00:32;;;;;;;12.75;6.53;;;-0.70;99.90;;;;;;5016882;28;20387;-87
2022/01/17 00:03:00;;;;;;;12.93;6.32;;;-0.70;99.90;;;;;;5020881;28;20401;-88
2022/01/17 00:05:28;;;;;;;11.00;6.35;;;-0.70;99.90;;;;;;5041537;28;20382;-87
2022/01/17 00:07:56;;;;;;;13.68;6.95;;;-0.70;99.90;;;;;;5033001;28;20474;-87
2022/01/17 00:10:24;;;;;;;11.50;5.70;;;-0.60;99.90;;;;;;5016665;28;20405;-88
2022/01/17 00:12:55;;;;;;;9.13;5.05;;;-0.60;99.90;;;;;;5019280;28;20489;-88
2022/01/17 00:15:40;;;;;;;10.53;5.63;;;-0.60;99.90;;;;;;5052771;28;20439;-88
2022/01/17 00:20:47;;;;;;;9.37;4.70;;;-0.60;99.90;;;;;;5053939;28;20412;-87
2022/01/17 00:23:15;;;;;;;8.25;4.20;;;-0.60;99.90;;;;;;5036227;28;20388;-87
2022/01/17 00:25:43;;;;;;;9.38;4.57;;;-0.50;99.90;;;;;;5036347;28;20823;-87
2022/01/17 00:28:11;;;;;;;6.95;3.85;;;-0.50;99.90;;;;;;5052612;28;20392;-88
2022/01/17 00:30:38;;;;;;;7.22;3.50;;;-0.50;99.90;;;;;;5052288;28;20446;-88
2022/01/17 00:33:06;;;;;;;7.57;3.97;;;-0.50;99.90;;;;;;5029342;28;20406;-86
2022/01/17 00:35:33;;;;;;;6.65;3.80;;;-0.50;99.90;;;;;;5022333;28;20382;-88
2022/01/17 00:38:01;;;;;;;7.30;3.80;;;-0.50;99.90;;;;;;5015687;28;20405;-89
2022/01/17 00:40:28;;;;;;;6.35;3.65;;;-0.40;99.90;;;;;;5053119;28;20517;-87
2022/01/17 00:42:56;;;;;;;6.47;3.92;;;-0.40;99.90;;;;;;5052097;28;20961;-87
2022/01/17 00:45:28;;;;;;;8.20;4.03;;;-0.40;99.90;;;;;;5032204;28;20389;-87
2022/01/17 00:47:56;;;;;;;8.18;3.70;;;-0.40;99.90;;;;;;5031962;28;20522;-87
2022/01/17 00:50:26;;;;;;;5.60;2.90;;;-0.40;99.90;;;;;;5032571;28;20401;-86
2022/01/17 00:52:53;;;;;;;6.03;3.55;;;-0.40;99.90;;;;;;5015783;28;20400;-86
2022/01/17 00:55:22;;;;;;;6.03;3.33;;;-0.40;99.90;;;;;;5031956;28;20477;-88
2022/01/17 00:57:49;;;;;;;5.80;3.40;;;-0.30;99.90;;;;;;5031816;28;20496;-86
2022/01/17 01:00:17;;;;;;;5.00;2.78;;;-0.40;99.90;;;;;;5015523;28;20389;-87
2022/01/17 01:02:46;;;;;;;3.92;2.22;;;-0.40;99.90;;;;;;5032360;28;20390;-87
2022/01/17 01:05:16;;;;;;;4.55;2.53;;;-0.30;99.90;;;;;;5033400;28;20389;-87
2022/01/17 01:07:44;;;;;;;3.60;2.30;;;-0.30;99.90;;;;;;5032033;28;20805;-87
2022/01/17 01:10:13;;;;;;;4.13;2.10;;;-0.30;99.90;;;;;;5024233;28;20397;-87
2022/01/17 01:12:46;;;;;;;4.85;2.35;;;-0.30;99.90;;;;;;5026529;28;20489;-86
2022/01/17 01:15:22;;;;;;;4.90;1.90;;;-0.30;99.90;;;;;;5033080;28;20417;-87
2022/01/17 01:17:53;;;;;;;3.70;2.20;;;-0.30;99.90;;;;;;5031672;28;20408;-87
2022/01/17 01:28:30;;;;;;;4.70;2.60;;;-0.20;99.90;;;;;;5051336;28;20387;-89
2022/01/17 01:31:00;;;;;;;5.55;3.00;;;-0.20;99.90;;;;;;5035225;28;20399;-88
2022/01/17 01:33:32;;;;;;;5.63;2.80;;;-0.20;99.90;;;;;;5035031;28;20395;-87
2022/01/17 01:36:05;;;;;;;4.53;2.57;;;-0.20;99.90;;;;;;5034771;28;20400;-85
2022/01/17 01:38:33;;;;;;;4.25;2.45;;;-0.20;99.90;;;;;;5035013;28;20407;-86
2022/01/17 01:41:00;;;;;;;5.20;2.63;;;-0.20;99.90;;;;;;5034754;28;20475;-86
2022/01/17 01:43:28;;;;;;;4.10;2.00;;;-0.20;99.90;;;;;;5051550;28;20486;-87
2022/01/17 01:46:01;;;;;;;3.63;2.05;;;-0.10;99.90;;;;;;5034825;28;20472;-87
2022/01/17 01:48:30;;;;;;;3.97;2.15;;;-0.10;99.90;;;;;;5051014;28;20402;-87
2022/01/17 01:50:58;;;;;;;3.90;2.00;;;-0.10;99.90;;;;;;5048138;28;20413;-86
2022/01/17 01:53:26;;;;;;;3.65;2.15;;;-0.10;99.90;;;;;;5031242;28;20456;-88
2022/01/17 01:55:55;;;;;;;4.10;2.28;;;-0.10;99.90;;;;;;5031444;28;20430;-88
2022/01/17 01:58:25;;;;;;;4.50;2.00;;;0.00;99.90;;;;;;5031019;28;20481;-87
2022/01/17 02:00:53;;;;;;;3.13;1.83;;;-0.10;99.90;;;;;;5033668;28;20875;-87
2022/01/17 02:03:22;;;;;;;3.93;2.03;;;-0.10;99.90;;;;;;5051499;28;20886;-87
2022/01/17 02:05:49;;;;;;;3.22;1.77;;;-0.10;99.90;;;;;;5051234;28;20462;-88
2022/01/17 02:08:17;;;;;;;3.75;1.92;;;0.00;99.90;;;;;;5034487;28;20432;-87
2022/01/17 02:10:46;;;;;;;3.28;1.80;;;0.00;99.90;;;;;;5051194;28;20424;-85
2022/01/17 02:13:13;;;;;;;3.55;1.70;;;0.00;99.90;;;;;;5050791;28;20431;-87
2022/01/17 02:15:43;;;;;;;2.90;1.83;;;0.00;99.90;;;;;;5034734;28;20426;-87
2022/01/17 02:18:12;;;;;;;3.03;1.85;;;0.00;99.90;;;;;;5049279;28;20415;-87
2022/01/17 02:20:43;;;;;;;3.78;1.70;;;0.00;99.90;;;;;;5031977;28;20403;-87
2022/01/17 02:23:13;;;;;;;2.88;1.55;;;0.00;99.90;;;;;;5030863;28;20467;-86
2022/01/17 02:25:41;;;;;;;2.25;1.50;;;0.10;99.90;;;;;;5014885;28;20433;-86
2022/01/17 02:28:08;;;;;;;2.28;1.35;;;0.10;99.90;;;;;;5029247;28;20499;-88
2022/01/17 02:30:36;;;;;;;2.10;1.30;;;0.10;99.90;;;;;;5051174;28;20427;-87
2022/01/17 02:33:04;;;;;;;2.08;1.05;;;0.10;99.90;;;;;;5018310;28;20405;-86
2022/01/17 02:35:32;;;;;;;2.78;1.10;;;0.00;99.90;;;;;;5030586;28;20393;-86
2022/01/17 02:37:59;;;;;;;1.85;1.00;;;0.10;99.90;;;;;;5030678;28;20405;-85
2022/01/17 02:40:26;;;;;;;1.90;1.17;;;0.10;99.90;;;;;;5019531;28;20452;-86
2022/01/17 02:43:02;;;;;;;2.15;1.27;;;0.10;99.90;;;;;;5014125;28;20401;-86
2022/01/17 02:45:37;;;;;;;1.77;1.00;;;0.10;99.90;;;;;;5014173;28;20398;-85
2022/01/17 02:48:09;;;;;;;2.40;0.77;;;0.10;99.90;;;;;;5047004;28;20409;-85
2022/01/17 02:50:36;;;;;;;3.13;1.10;;;0.10;99.90;;;;;;5022785;28;20435;-86
2022/01/17 02:53:08;;;;;;;1.52;0.82;;;0.10;99.90;;;;;;5013867;28;20474;-86
2022/01/17 02:55:37;;;;;;;1.30;0.80;;;0.10;99.90;;;;;;5014285;28;20409;-86
2022/01/17 02:58:04;;;;;;;1.00;0.60;;;0.10;99.90;;;;;;5014146;28;20460;-86
2022/01/17 03:00:32;;;;;;;1.23;0.80;;;0.10;99.90;;;;;;5030431;28;20439;-85
2022/01/17 03:03:00;;;;;;;1.10;0.65;;;0.10;99.90;;;;;;5014037;28;20476;-87
2022/01/17 03:05:27;;;;;;;1.20;0.70;;;0.10;99.90;;;;;;5014085;28;20448;-88
2022/01/17 03:07:55;;;;;;;1.05;0.70;;;0.10;99.90;;;;;;5030354;28;20448;-87
2022/01/17 03:13:08;;;;;;;1.52;0.70;;;0.10;99.90;;;;;;5030311;28;20389;-87
2022/01/17 03:15:36;;;;;;;0.68;0.60;;;0.10;99.90;;;;;;5013900;28;20452;-87
2022/01/17 03:18:04;;;;;;;1.40;0.75;;;0.10;99.90;;;;;;5030429;28;20476;-87
2022/01/17 03:20:34;;;;;;;1.08;0.50;;;0.10;99.90;;;;;;5014169;28;20510;-87
2022/01/17 03:23:01;;;;;;;1.08;0.60;;;0.10;99.90;;;;;;5030511;28;20430;-85
2022/01/17 03:25:29;;;;;;;1.15;0.60;;;0.10;99.90;;;;;;5030211;28;20409;-85
2022/01/17 03:27:58;;;;;;;1.80;0.88;;;0.10;99.90;;;;;;5017748;28;20939;-87
2022/01/17 03:30:28;;;;;;;1.63;0.98;;;0.20;99.90;;;;;;5033882;28;20397;-87
2022/01/17 03:32:55;;;;;;;1.13;0.70;;;0.20;99.90;;;;;;5033912;28;20397;-85
2022/01/17 03:35:23;;;;;;;1.80;0.90;;;0.20;99.90;;;;;;5033612;28;20422;-86
2022/01/17 03:37:50;;;;;;;1.50;1.00;;;0.20;99.90;;;;;;5033831;28;20401;-88
2022/01/17 03:40:18;;;;;;;3.15;1.60;;;0.20;99.90;;;;;;5033986;28;20402;-89
2022/01/17 03:42:45;;;;;;;3.60;2.00;;;0.20;99.90;;;;;;5033525;28;20435;-88
2022/01/17 03:45:13;;;;;;;4.97;2.33;;;0.20;99.90;;;;;;5034828;28;20435;-89
2022/01/17 03:47:43;;;;;;;4.35;2.60;;;0.20;99.90;;;;;;5035627;28;20467;-89
2022/01/17 03:50:16;;;;;;;6.03;3.05;;;0.20;99.90;;;;;;5037177;28;20388;-90
2022/01/17 03:52:43;;;;;;;8.65;3.88;;;0.20;99.90;;;;;;5020572;28;20420;-88
2022/01/17 03:55:14;;;;;;;7.47;4.03;;;0.30;99.90;;;;;;5029651;28;20399;-89
2022/01/17 03:57:43;;;;;;;6.72;3.85;;;0.30;99.90;;;;;;5022902;28;20404;-89
2022/01/17 04:00:26;;;;;;;9.27;4.28;;;0.30;99.90;;;;;;5073912;28;20384;-89
2022/01/17 04:02:54;;;;;;;9.57;4.18;;;0.30;99.90;;;;;;5050626;28;20974;-89
2022/01/17 04:05:22;;;;;;;8.77;4.55;;;0.30;99.90;;;;;;5039936;28;20397;-88
2022/01/17 04:07:50;;;;;;;8.45;4.22;;;0.30;99.90;;;;;;5039549;28;20394;-88
2022/01/17 04:10:18;;;;;;;8.02;4.53;;;0.30;99.90;;;;;;5056510;28;20796;-88
2022/01/17 04:12:47;;;;;;;9.68;5.00;;;0.30;99.90;;;;;;5055894;28;20409;-87
2022/01/17 04:15:15;;;;;;;10.75;5.20;;;0.30;99.90;;;;;;5074127;28;20469;-87
2022/01/17 04:17:43;;;;;;;10.07;4.63;;;0.40;99.90;;;;;;5073735;28;20903;-88
2022/01/17 04:20:25;;;;;;;12.32;5.72;;;0.40;99.90;;;;;;5039975;28;20383;-88
2022/01/17 04:22:54;;;;;;;12.55;5.22;;;0.40;99.90;;;;;;5039189;28;20390;-87
2022/01/17 04:25:23;;;;;;;10.93;5.05;;;0.40;99.90;;;;;;5056400;28;20382;-88
2022/01/17 04:27:52;;;;;;;14.13;5.65;;;0.40;99.90;;;;;;5056002;28;20404;-88
2022/01/17 04:30:21;;;;;;;11.82;5.50;;;0.50;99.90;;;;;;5056730;28;20383;-88
2022/01/17 04:32:48;;;;;;;10.38;4.97;;;0.50;99.90;;;;;;5055854;28;20401;-88
2022/01/17 04:35:21;;;;;;;11.93;5.50;;;0.40;99.90;;;;;;5055839;28;20394;-88
2022/01/17 04:37:51;;;;;;;9.45;4.57;;;0.50;99.90;;;;;;5054763;28;20398;-90
2022/01/17 04:40:20;;;;;;;10.18;5.10;;;0.50;99.90;;;;;;5055640;28;20414;-88
2022/01/17 04:42:49;;;;;;;9.00;4.88;;;0.50;99.90;;;;;;5056003;28;20436;-88
2022/01/17 04:45:19;;;;;;;14.40;5.72;;;0.50;99.90;;;;;;5054114;28;20386;-89
2022/01/17 04:47:49;;;;;;;14.05;5.70;;;0.50;99.90;;;;;;5022655;28;20418;-88
2022/01/17 04:50:25;;;;;;;13.63;5.40;;;0.50;99.90;;;;;;5035795;28;20762;-89
2022/01/17 04:53:00;;;;;;;12.70;5.57;;;0.50;99.90;;;;;;5035999;28;20418;-88
2022/01/17 04:55:28;;;;;;;9.18;4.38;;;0.50;99.90;;;;;;5035916;28;20391;-89
2022/01/17 04:57:56;;;;;;;10.98;4.90;;;0.40;99.90;;;;;;5035608;28;20410;-88
2022/01/17 05:00:26;;;;;;;9.13;4.45;;;0.40;99.90;;;;;;5035775;28;20430;-89
2022/01/17 05:02:55;;;;;;;9.63;4.20;;;0.40;99.90;;;;;;5039200;28;20406;-89
2022/01/17 05:05:22;;;;;;;9.77;4.45;;;0.40;99.90;;;;;;5055083;28;20497;-88
2022/01/17 05:07:50;;;;;;;10.02;3.80;;;0.40;99.90;;;;;;5054654;28;20436;-88
2022/01/17 05:10:21;;;;;;;8.63;3.60;;;0.40;99.90;;;;;;5030870;28;20410;-88
2022/01/17 05:12:50;;;;;;;9.13;3.45;;;0.40;99.90;;;;;;5055335;28;20398;-88
2022/01/17 05:15:43;;;;;;;10.55;3.30;;;0.40;99.90;;;;;;5072962;28;20416;-89
2022/01/17 05:18:24;;;;;;;11.17;4.10;;;0.40;99.90;;;;;;5055466;28;20398;-92
2022/01/17 05:20:52;;;;;;;6.72;3.28;;;0.40;99.90;;;;;;5038581;28;20444;-89
2022/01/17 05:23:19;;;;;;;6.43;3.03;;;0.30;99.90;;;;;;5038509;28;20386;-89
2022/01/17 05:25:47;;;;;;;7.20;2.78;;;0.40;99.90;;;;;;5029934;28;20500;-89
2022/01/17 05:28:15;;;;;;;8.67;3.23;;;0.30;99.90;;;;;;5038451;28;20386;-90
2022/01/17 05:30:42;;;;;;;7.30;2.70;;;0.40;99.90;;;;;;5038576;28;20477;-89
2022/01/17 05:33:10;;;;;;;6.68;2.53;;;0.30;99.90;;;;;;5038372;28;20418;-89
2022/01/17 05:35:38;;;;;;;8.07;2.57;;;0.30;99.90;;;;;;5034759;28;20404;-90
2022/01/17 05:38:12;;;;;;;7.00;2.47;;;0.30;99.90;;;;;;5050684;28;20495;-90
2022/01/17 05:40:39;;;;;;;7.13;2.43;;;0.30;99.90;;;;;;5018721;28;20387;-89
2022/01/17 05:43:07;;;;;;;7.30;2.10;;;0.30;99.90;;;;;;5051136;28;20396;-90
2022/01/17 05:45:35;;;;;;;5.88;2.13;;;0.30;99.90;;;;;;5018636;28;20384;-90
2022/01/17 05:48:03;;;;;;;5.50;2.03;;;0.30;99.90;;;;;;5035051;28;20399;-89
2022/01/17 05:50:30;;;;;;;5.70;1.80;;;0.30;99.90;;;;;;5053850;28;20433;-89
2022/01/17 05:52:58;;;;;;;3.63;1.98;;;0.30;99.90;;;;;;5054932;28;20424;-87
2022/01/17 05:55:26;;;;;;;5.70;1.83;;;0.30;99.90;;;;;;5038306;28;20394;-89
2022/01/17 05:57:55;;;;;;;2.75;1.30;;;0.30;99.90;;;;;;5038043;28;20402;-91
2022/01/17 06:00:23;;;;;;;5.57;1.80;;;0.30;99.90;;;;;;5038329;28;20417;-89
2022/01/17 06:02:50;;;;;;;3.40;1.30;;;0.30;99.90;;;;;;5020226;28;20410;-89
2022/01/17 06:05:18;;;;;;;2.10;1.08;;;0.30;99.90;;;;;;5018538;28;20402;-89
2022/01/17 06:07:46;;;;;;;3.75;1.10;;;0.30;99.90;;;;;;5037066;28;20430;-88
2022/01/17 06:10:13;;;;;;;21.60;12.00;;;0.30;99.90;;;;;;5053771;28;20493;-88
2022/01/17 06:12:41;;;;;;;2.67;1.15;;;0.30;99.90;;;;;;5054089;28;20386;-87
2022/01/17 06:15:09;;;;;;;1.67;0.77;;;0.30;99.90;;;;;;5018005;28;20486;-89
2022/01/17 06:17:36;;;;;;;3.75;1.25;;;0.30;99.90;;;;;;5065644;28;20410;-88
2022/01/17 06:20:05;;;;;;;1.08;0.60;;;0.30;99.90;;;;;;5033380;28;20408;-87
2022/01/17 06:22:33;;;;;;;0.80;0.50;;;0.30;99.90;;;;;;5033202;28;20392;-87
2022/01/17 06:25:01;;;;;;;1.67;0.63;;;0.30;99.90;;;;;;5053378;28;20421;-86
2022/01/17 06:27:28;;;;;;;1.20;0.63;;;0.30;99.90;;;;;;5018042;28;20486;-88
2022/01/17 06:29:57;;;;;;;0.70;0.50;;;0.30;99.90;;;;;;5018007;28;20487;-89
2022/01/17 06:32:25;;;;;;;0.50;0.30;;;0.30;99.90;;;;;;5034741;28;20415;-89
2022/01/17 06:34:54;;;;;;;0.43;0.30;;;0.30;99.90;;;;;;5034262;28;20901;-88
2022/01/17 06:37:21;;;;;;;0.60;0.30;;;0.30;99.90;;;;;;5051958;28;20390;-88
2022/01/17 06:39:51;;;;;;;0.60;0.38;;;0.30;99.90;;;;;;5018241;28;20406;-89
2022/01/17 06:42:20;;;;;;;0.73;0.25;;;0.30;99.90;;;;;;5018089;28;20400;-88
2022/01/17 06:44:50;;;;;;;1.00;0.10;;;0.30;99.90;;;;;;5034114;28;20395;-89
2022/01/17 06:47:17;;;;;;;1.27;0.40;;;0.20;99.90;;;;;;5017951;28;20900;-88
2022/01/17 06:49:45;;;;;;;0.50;0.20;;;0.30;99.90;;;;;;5014847;28;20487;-87
2022/01/17 06:52:12;;;;;;;0.55;0.40;;;0.30;99.90;;;;;;5014632;28;20489;-88
2022/01/17 06:54:40;;;;;;;0.68;0.20;;;0.20;99.90;;;;;;5030843;28;20440;-91
2022/01/17 06:57:07;;;;;;;0.50;0.20;;;0.20;99.90;;;;;;5014984;28;20400;-89
2022/01/17 06:59:35;;;;;;;0.60;0.20;;;0.30;99.90;;;;;;5014289;28;20397;-88
2022/01/17 07:02:03;;;;;;;0.90;0.20;;;0.30;99.90;;;;;;5016543;28;20896;-89
2022/01/17 07:04:31;;;;;;;0.22;0.10;;;0.30;99.90;;;;;;5018147;28;20389;-91
2022/01/17 07:06:58;;;;;;;0.50;0.20;;;0.20;99.90;;;;;;5018403;28;20828;-89
2022/01/17 07:09:25;;;;;;;0.73;0.20;;;0.20;99.90;;;;;;5018403;28;20873;-91
2022/01/17 07:11:53;;;;;;;2.40;0.30;;;0.20;99.90;;;;;;5018451;28;20397;-89
2022/01/17 07:14:20;;;;;;;1.85;0.32;;;0.20;99.90;;;;;;5018534;28;20409;-89
2022/01/17 07:16:48;;;;;;;0.85;0.20;;;0.20;99.90;;;;;;5034547;28;20420;-91
2022/01/17 07:19:15;;;;;;;2.55;0.50;;;0.20;99.90;;;;;;5018820;28;20409;-89
2022/01/17 07:21:43;;;;;;;0.90;0.40;;;0.20;99.90;;;;;;5052656;28;20412;-90
2022/01/17 07:24:31;;;;;;;1.50;0.30;;;0.20;99.90;;;;;;5040350;28;20454;-89
2022/01/17 07:26:59;;;;;;;4.38;0.40;;;0.20;99.90;;;;;;5055086;28;20383;-89
2022/01/17 07:29:27;;;;;;;4.85;0.82;;;0.10;99.90;;;;;;5052791;28;20403;-91
2022/01/17 07:31:55;;;;;;;3.08;0.60;;;0.10;99.90;;;;;;5049466;28;20420;-91
2022/01/17 07:34:23;;;;;;;3.60;0.70;;;0.10;99.90;;;;;;5052965;28;20406;-89
2022/01/17 07:36:50;;;;;;;5.75;0.70;;;0.10;99.90;;;;;;5053023;28;20469;-88
2022/01/17 07:39:18;;;;;;;5.38;0.70;;;0.00;99.90;;;;;;5050271;28;20405;-87
2022/01/17 07:41:45;;;;;;;3.55;0.60;;;0.00;99.90;;;;;;5027403;28;20399;-88
2022/01/17 07:44:20;;;;;;;5.18;0.82;;;-0.10;99.90;;;;;;5053660;28;20893;-88
2022/01/17 07:46:53;;;;;;;4.97;0.60;;;0.00;99.90;;;;;;5054671;28;20387;-88
2022/01/17 07:49:22;;;;;;;5.60;0.98;;;-0.10;99.90;;;;;;5036964;28;20404;-89
2022/01/17 07:51:56;;;;;;;5.80;0.80;;;-0.10;99.90;;;;;;5053508;28;20390;-87
2022/01/17 07:54:25;;;;;;;4.68;0.88;;;-0.10;99.90;;;;;;5053339;28;20408;-89
2022/01/17 07:56:53;;;;;;;5.97;0.90;;;-0.20;99.90;;;;;;5037097;28;20439;-88
2022/01/17 07:59:20;;;;;;;5.43;0.82;;;-0.20;99.90;;;;;;5053354;28;20420;-90
2022/01/17 08:01:48;;;;;;;5.05;0.68;;;-0.20;99.90;;;;;;5037041;28;20886;-88
2022/01/17 08:04:16;;;;;;;7.10;0.82;;;-0.20;99.90;;;;;;5053737;28;20886;-90
2022/01/17 08:06:46;;;;;;;6.25;0.80;;;-0.30;99.90;;;;;;5053182;28;20400;-87
2022/01/17 08:09:29;;;;;;;7.88;1.00;;;-0.30;99.90;;;;;;5048906;28;20471;-89
2022/01/17 08:12:04;;;;;;;5.93;0.90;;;-0.30;99.90;;;;;;5037123;28;20399;-90
2022/01/17 08:14:32;;;;;;;6.95;0.80;;;-0.30;99.90;;;;;;5053338;28;20475;-89
2022/01/17 08:16:59;;;;;;;7.70;0.95;;;-0.30;99.90;;;;;;5036607;28;20420;-89
2022/01/17 08:19:27;;;;;;;5.57;0.65;;;-0.30;99.90;;;;;;5036584;28;20495;-90
2022/01/17 08:22:03;;;;;;;5.25;0.80;;;-0.30;99.90;;;;;;5053143;28;20869;-90
2022/01/17 08:24:32;;;;;;;7.80;1.10;;;-0.30;99.90;;;;;;5036511;28;20698;-90
2022/01/17 08:27:00;;;;;;;8.60;1.27;;;-0.30;99.90;;;;;;5053034;28;20426;-88
2022/01/17 08:29:28;;;;;;;6.28;1.05;;;-0.40;99.90;;;;;;5029397;28;20471;-87
2022/01/17 08:31:58;;;;;;;6.07;0.95;;;-0.40;99.90;;;;;;5023551;28;20953;-88
2022/01/17 08:34:26;;;;;;;6.63;0.88;;;-0.40;99.90;;;;;;5045277;28;20764;-89
2022/01/17 08:36:53;;;;;;;9.63;1.45;;;-0.40;99.90;;;;;;5036037;28;20402;-90
2022/01/17 08:39:21;;;;;;;6.65;0.90;;;-0.50;99.90;;;;;;5017832;28;20409;-90
2022/01/17 08:41:49;;;;;;;7.67;1.20;;;-0.50;99.90;;;;;;5033472;28;20401;-90
2022/01/17 08:44:19;;;;;;;6.40;1.02;;;-0.50;99.90;;;;;;5032676;28;20440;-88
2022/01/17 08:46:46;;;;;;;6.13;1.00;;;-0.50;99.90;;;;;;5037524;28;20421;-89
2022/01/17 08:49:16;;;;;;;6.77;0.90;;;-0.50;99.90;;;;;;5048174;28;20820;-88
2022/01/17 08:51:46;;;;;;;5.03;0.73;;;-0.50;99.90;;;;;;5047827;28;20409;-90
2022/01/17 08:54:13;;;;;;;7.63;1.17;;;-0.50;99.90;;;;;;5029687;28;20386;-90
2022/01/17 08:56:41;;;;;;;3.65;0.85;;;-0.50;99.90;;;;;;5032512;28;20402;-90
2022/01/17 08:59:09;;;;;;;5.32;0.80;;;-0.50;99.90;;;;;;5052410;28;20399;-88
2022/01/17 09:01:36;;;;;;;3.50;0.73;;;-0.50;99.90;;;;;;5035942;28;20407;-89
2022/01/17 09:04:04;;;;;;;7.40;1.20;;;-0.50;99.90;;;;;;5035835;28;20402;-89
2022/01/17 09:06:32;;;;;;;6.40;0.68;;;-0.60;99.90;;;;;;5031457;28;20408;-88
2022/01/17 09:08:59;;;;;;;6.25;0.95;;;-0.60;99.90;;;;;;5026153;28;20435;-89
2022/01/17 09:11:30;;;;;;;6.03;0.80;;;-0.60;99.90;;;;;;5031959;28;20499;-89
2022/01/17 09:13:57;;;;;;;8.38;0.70;;;-0.60;99.90;;;;;;5030949;28;20413;-89
2022/01/17 09:16:25;;;;;;;5.60;0.93;;;-0.60;99.90;;;;;;5028680;28;20485;-89
2022/01/17 09:18:53;;;;;;;4.45;0.93;;;-0.60;99.90;;;;;;5035761;28;20435;-88
2022/01/17 09:21:20;;;;;;;3.40;0.60;;;-0.60;99.90;;;;;;5051805;28;20395;-89
2022/01/17 09:23:50;;;;;;;3.58;0.55;;;-0.60;99.90;;;;;;5051424;28;20395;-89
2022/01/17 09:26:18;;;;;;;5.13;0.60;;;-0.70;99.90;;;;;;5051814;28;20467;-88
2022/01/17 09:28:47;;;;;;;3.92;0.60;;;-0.60;99.90;;;;;;5052917;28;20500;-89
2022/01/17 09:31:16;;;;;;;4.13;0.70;;;-0.70;99.90;;;;;;5043280;28;20495;-89
2022/01/17 09:33:43;;;;;;;3.30;0.57;;;-0.70;99.90;;;;;;5035419;28;20833;-88
2022/01/17 09:36:11;;;;;;;3.65;0.60;;;-0.70;99.90;;;;;;5035653;28;20408;-89
2022/01/17 09:38:38;;;;;;;2.77;0.40;;;-0.60;99.90;;;;;;5030495;28;20408;-88
2022/01/17 09:41:06;;;;;;;1.52;0.45;;;-0.60;99.90;;;;;;5044322;28;20432;-89
2022/01/17 09:43:43;;;;;;;2.17;0.50;;;-0.60;99.90;;;;;;5031646;28;20419;-88
2022/01/17 09:46:11;;;;;;;3.70;0.52;;;-0.50;99.90;;;;;;5025081;28;20411;-89
2022/01/17 09:48:46;;;;;;;3.40;0.50;;;-0.50;99.90;;;;;;5048905;28;20923;-89
2022/01/17 09:51:20;;;;;;;3.55;0.50;;;-0.50;99.90;;;;;;5027094;28;20409;-89
2022/01/17 09:53:53;;;;;;;2.80;0.50;;;-0.50;99.90;;;;;;5028459;28;20405;-87
2022/01/17 09:56:23;;;;;;;2.40;0.40;;;-0.50;99.90;;;;;;5042218;28;20905;-88
2022/01/17 09:58:52;;;;;;;1.77;0.37;;;-0.50;99.90;;;;;;5043299;28;20467;-88
2022/01/17 10:01:19;;;;;;;1.70;0.50;;;-0.50;99.90;;;;;;5017643;28;20394;-89
2022/01/17 10:03:47;;;;;;;4.40;0.70;;;-0.50;99.90;;;;;;5033563;28;20407;-89
2022/01/17 10:06:15;;;;;;;1.83;0.40;;;-0.50;99.90;;;;;;5034759;28;20395;-87
2022/01/17 10:08:42;;;;;;;2.80;0.40;;;-0.50;99.90;;;;;;5034418;28;20442;-88
2022/01/17 10:11:16;;;;;;;2.70;0.30;;;-0.60;99.90;;;;;;5034705;28;20395;-90
2022/01/17 10:13:47;;;;;;;3.00;0.40;;;-0.60;99.90;;;;;;5051280;28;20392;-87
2022/01/17 10:16:19;;;;;;;1.42;0.40;;;-0.60;99.90;;;;;;5051352;28;20601;-88
2022/01/17 10:18:56;;;;;;;2.28;0.43;;;-0.60;99.90;;;;;;5051083;28;20415;-88
2022/01/17 10:21:31;;;;;;;3.70;0.50;;;-0.50;99.90;;;;;;5033706;28;20396;-90
2022/01/17 10:27:28;;;;;;;2.60;0.40;;;-0.50;99.90;;;;;;5039713;28;20393;-90
2022/01/17 10:35:34;;;;;;;3.90;0.50;;;-0.50;99.90;;;;;;5050987;28;20954;-90
2022/01/17 10:38:01;;;;;;;2.10;0.40;;;-0.50;99.90;;;;;;5038408;28;20403;-90
2022/01/17 10:40:33;;;;;;;2.25;0.40;;;-0.50;99.90;;;;;;5018884;28;20401;-90
2022/01/17 10:43:02;;;;;;;1.67;0.40;;;-0.40;99.90;;;;;;5019135;28;20429;-90
2022/01/17 10:45:36;;;;;;;1.10;0.28;;;-0.40;99.90;;;;;;5018661;28;20408;-90
2022/01/17 10:48:04;;;;;;;1.35;0.30;;;-0.50;99.90;;;;;;5018463;28;20452;-88
2022/01/17 10:50:38;;;;;;;1.00;0.20;;;-0.50;99.90;;;;;;5035173;28;20416;-89
2022/01/17 10:53:13;;;;;;;1.80;0.40;;;-0.50;99.90;;;;;;5034940;28;20409;-88
2022/01/17 10:55:48;;;;;;;1.50;0.35;;;-0.50;99.90;;;;;;5035062;28;20405;-88
2022/01/17 10:58:21;;;;;;;1.15;0.30;;;-0.40;99.90;;;;;;5035381;28;20401;-91
2022/01/17 11:00:51;;;;;;;0.65;0.20;;;-0.50;99.90;;;;;;5029567;28;20413;-89
2022/01/17 11:03:22;;;;;;;1.90;0.40;;;-0.50;99.90;;;;;;5018742;28;20941;-89
2022/01/17 11:05:55;;;;;;;2.05;0.47;;;-0.50;99.90;;;;;;5018789;28;20409;-90
2022/01/17 11:08:25;;;;;;;2.78;0.70;;;-0.50;99.90;;;;;;5032789;28;20430;-90
2022/01/17 11:10:56;;;;;;;2.33;0.50;;;-0.40;99.90;;;;;;5018301;28;20409;-88
2022/01/17 11:13:28;;;;;;;2.25;0.35;;;-0.50;99.90;;;;;;5036310;28;20557;-89
2022/01/17 11:15:59;;;;;;;2.55;0.55;;;-0.50;99.90;;;;;;5024317;28;20437;-89
2022/01/17 11:18:29;;;;;;;2.63;0.40;;;-0.40;99.90;;;;;;5036224;28;20473;-91
2022/01/17 11:21:10;;;;;;;1.98;0.30;;;-0.40;99.90;;;;;;5037789;28;20392;-89
2022/01/17 11:23:41;;;;;;;4.00;0.50;;;-0.40;99.90;;;;;;5054300;28;20400;-90
2022/01/17 11:26:10;;;;;;;2.17;0.40;;;-0.40;99.90;;;;;;5037918;28;20454;-90
2022/01/17 11:28:39;;;;;;;2.05;0.32;;;-0.40;99.90;;;;;;5037843;28;20898;-90
2022/01/17 11:31:12;;;;;;;1.90;0.40;;;-0.50;99.90;;;;;;5054307;28;20406;-88
2022/01/17 11:33:41;;;;;;;2.53;0.50;;;-0.40;99.90;;;;;;5037708;28;20423;-89
2022/01/17 11:36:09;;;;;;;2.20;0.30;;;-0.40;99.90;;;;;;5038639;28;20407;-87
2022/01/17 11:38:44;;;;;;;1.80;0.35;;;-0.40;99.90;;;;;;5021725;28;20425;-89
2022/01/17 11:41:29;;;;;;;3.40;0.50;;;-0.40;99.90;;;;;;5037619;28;20404;-89
2022/01/17 11:43:56;;;;;;;1.85;0.40;;;-0.40;99.90;;;;;;5054100;28;20403;-89
2022/01/17 11:46:27;;;;;;;1.52;0.63;;;-0.40;99.90;;;;;;5036937;28;20428;-89
2022/01/17 11:49:03;;;;;;;2.42;0.43;;;-0.40;99.90;;;;;;5037046;28;20415;-89
2022/01/17 11:51:46;;;;;;;1.42;0.30;;;-0.40;99.90;;;;;;5037215;28;20939;-89
2022/01/17 11:54:22;;;;;;;1.27;0.30;;;-0.40;99.90;;;;;;5053843;28;20745;-89
2022/01/17 11:56:53;;;;;;;2.97;0.50;;;-0.40;99.90;;;;;;5036867;28;20889;-89
2022/01/17 11:59:35;;;;;;;4.82;0.60;;;-0.30;99.90;;;;;;5051210;28;20404;-87
2022/01/17 12:02:24;;;;;;;1.85;0.30;;;-0.30;99.90;;;;;;5054431;28;20505;-88
2022/01/17 12:05:07;;;;;;;1.90;0.40;;;-0.30;99.90;;;;;;5033563;28;20385;-88
2022/01/17 12:07:55;;;;;;;2.20;0.30;;;-0.30;99.90;;;;;;5041195;28;20402;-90
2022/01/17 12:10:38;;;;;;;1.20;0.40;;;-0.30;99.90;;;;;;5032470;28;20934;-90
2022/01/17 12:13:12;;;;;;;1.65;0.30;;;-0.30;99.90;;;;;;5033415;28;20428;-89
2022/01/17 12:16:11;;;;;;;1.33;0.30;;;-0.20;99.90;;;;;;5037478;28;20415;-89
2022/01/17 12:18:40;;;;;;;1.35;0.40;;;-0.20;99.90;;;;;;5033131;28;20467;-88
2022/01/17 12:21:23;;;;;;;1.25;0.40;;;-0.30;99.90;;;;;;5016973;28;20467;-89
2022/01/17 12:24:11;;;;;;;1.80;0.30;;;-0.30;99.90;;;;;;5034264;28;20389;-89
2022/01/17 12:26:39;;;;;;;1.00;0.43;;;-0.30;99.90;;;;;;5033151;28;20485;-89
2022/01/17 12:29:06;;;;;;;0.77;0.30;;;-0.20;99.90;;;;;;5033204;28;20409;-88
2022/01/17 12:31:40;;;;;;;1.40;0.40;;;-0.20;99.90;;;;;;5049582;28;20398;-89
2022/01/17 12:34:25;;;;;;;1.70;0.43;;;-0.20;99.90;;;;;;5048492;28;20419;-88
2022/01/17 12:36:58;;;;;;;1.73;0.30;;;-0.30;99.90;;;;;;5052919;28;20398;-88
2022/01/17 12:39:29;;;;;;;0.80;0.30;;;-0.30;99.90;;;;;;5052851;28;20395;-88
2022/01/17 12:42:02;;;;;;;1.40;0.30;;;-0.30;99.90;;;;;;5053087;28;20418;-89
2022/01/17 12:44:32;;;;;;;1.25;0.30;;;-0.20;99.90;;;;;;5052687;28;20403;-89
2022/01/17 12:47:03;;;;;;;2.28;0.50;;;-0.20;99.90;;;;;;5021659;28;20396;-89
2022/01/17 12:49:39;;;;;;;1.33;0.47;;;-0.20;99.90;;;;;;5033993;28;20469;-88
2022/01/17 12:52:07;;;;;;;0.50;0.30;;;-0.20;99.90;;;;;;5032751;28;20397;-88
2022/01/17 12:54:34;;;;;;;0.82;0.30;;;-0.10;99.90;;;;;;5032607;28;20847;-88
2022/01/17 12:57:02;;;;;;;2.40;0.20;;;-0.10;99.90;;;;;;5016258;28;20892;-89
2022/01/17 12:59:30;;;;;;;1.30;0.30;;;-0.10;99.90;;;;;;5031383;28;20911;-89
2022/01/17 13:01:59;;;;;;;0.45;0.30;;;-0.10;99.90;;;;;;5015994;28;20950;-88
2022/01/17 13:04:29;;;;;;;1.90;0.30;;;-0.20;99.90;;;;;;5032149;28;20459;-87
2022/01/17 13:06:57;;;;;;;0.88;0.30;;;-0.20;99.90;;;;;;5036688;28;20478;-86
2022/01/17 13:09:25;;;;;;;1.27;0.38;;;-0.30;99.90;;;;;;5052193;28;20432;-86
2022/01/17 13:11:57;;;;;;;0.80;0.30;;;-0.30;99.90;;;;;;5052192;28;20402;-87
2022/01/17 13:14:25;;;;;;;1.40;0.22;;;-0.30;99.90;;;;;;5035389;28;20396;-89
2022/01/17 13:16:53;;;;;;;1.20;0.30;;;-0.30;99.90;;;;;;5051646;28;20765;-86
2022/01/17 13:19:22;;;;;;;1.60;0.30;;;-0.30;99.90;;;;;;5051400;28;20494;-87
2022/01/17 13:21:50;;;;;;;1.27;0.20;;;-0.40;99.90;;;;;;5052307;28;20878;-88
2022/01/17 13:27:09;;;;;;;0.85;0.30;;;-0.40;99.90;;;;;;5051840;28;20465;-88
2022/01/17 13:29:42;;;;;;;2.05;0.40;;;-0.40;99.90;;;;;;5052077;28;20498;-89